Aviation Digital Data Service (ADDS)

Output produced by METARs form (1854 UTC 22 August 2017)
found at http://aviationweather.gov/adds/metars/
 
KLCH 221851Z 20008KT 5SM -RA BKN034 BKN045 OVC065 29/24 A3006 RMK AO2 LTG DSNT SW RAB48 P0000